Time;durP1;ratioP1;P1;durP2;ratioP2;P2;SDS_P1;SDS_P2;PMS_P1;PMS_P2;Temp;Humidity;BMP_temperature;BMP_pressure;BME280_temperature;BME280_humidity;BME280_pressure;Samples;Min_cycle;Max_cycle;Signal;HPM_P1;HPM_P2
2022/05/07 00:00:27;;;;;;;8.40;6.30;;;13.70;99.90;;;;;;5111043;28;20575;-58
2022/05/07 00:02:53;;;;;;;6.83;5.80;;;13.70;99.90;;;;;;5110805;27;20203;-51
2022/05/07 00:05:19;;;;;;;9.37;6.80;;;13.80;99.90;;;;;;5110882;28;20279;-53
2022/05/07 00:07:45;;;;;;;7.03;5.50;;;13.80;99.90;;;;;;5110466;27;20689;-53
2022/05/07 00:10:11;;;;;;;7.83;5.27;;;13.80;99.90;;;;;;5110015;28;20473;-52
2022/05/07 00:12:36;;;;;;;6.10;5.33;;;13.80;99.90;;;;;;5109861;28;20476;-55
2022/05/07 00:15:02;;;;;;;10.80;6.20;;;13.80;99.90;;;;;;5111011;28;20215;-52
2022/05/07 00:20:12;;;;;;;7.97;6.00;;;13.70;99.90;;;;;;5110481;28;20528;-53
2022/05/07 00:22:37;;;;;;;7.13;5.27;;;13.60;99.90;;;;;;5110760;28;20462;-53
2022/05/07 00:25:03;;;;;;;7.67;6.37;;;13.50;99.90;;;;;;5110512;27;20784;-53
2022/05/07 00:27:29;;;;;;;9.97;6.37;;;13.40;99.90;;;;;;5110495;28;20215;-53
2022/05/07 00:29:54;;;;;;;7.93;5.77;;;13.30;99.90;;;;;;5110025;28;20199;-53
2022/05/07 00:32:20;;;;;;;9.37;6.43;;;13.30;99.90;;;;;;5110487;28;20195;-53
2022/05/07 00:34:45;;;;;;;8.23;5.30;;;13.20;99.90;;;;;;5110239;28;20195;-52
2022/05/07 00:37:11;;;;;;;11.70;6.53;;;13.10;99.90;;;;;;5110314;28;20634;-53
2022/05/07 00:39:36;;;;;;;10.77;6.47;;;13.10;1.00;;;;;;5110215;28;20196;-53
2022/05/07 00:42:06;;;;;;;8.43;6.43;;;13.00;1.00;;;;;;5109620;28;20222;-53
2022/05/07 00:44:33;;;;;;;11.50;6.70;;;12.90;1.00;;;;;;5110253;28;20541;-53
2022/05/07 00:47:31;;;;;;;8.17;7.00;;;12.90;1.00;;;;;;5110244;28;20469;-53
2022/05/07 00:52:43;;;;;;;12.33;7.10;;;12.80;1.00;;;;;;5110213;28;20445;-53
2022/05/07 00:55:11;;;;;;;13.23;7.20;;;12.70;1.00;;;;;;5108257;28;20525;-53
2022/05/07 00:57:37;;;;;;;10.43;8.03;;;12.70;1.00;;;;;;5109917;27;20502;-53
2022/05/07 01:00:04;;;;;;;12.60;7.30;;;12.60;1.00;;;;;;5109455;28;20528;-53
2022/05/07 01:02:30;;;;;;;9.10;7.03;;;12.60;1.00;;;;;;5109755;27;20211;-53
2022/05/07 01:04:56;;;;;;;9.53;6.90;;;12.60;1.00;;;;;;5109858;28;20549;-53
2022/05/07 01:07:22;;;;;;;9.30;6.97;;;12.60;1.00;;;;;;5109885;28;20219;-53
2022/05/07 01:09:48;;;;;;;9.90;6.93;;;12.50;1.00;;;;;;5107687;28;20938;-53
2022/05/07 01:12:14;;;;;;;8.30;6.30;;;12.50;1.00;;;;;;5109622;28;20184;-53
2022/05/07 01:14:40;;;;;;;9.03;6.80;;;12.50;1.00;;;;;;5107999;28;20503;-53
2022/05/07 01:17:07;;;;;;;13.27;7.03;;;12.40;1.00;;;;;;5109623;28;20453;-52
2022/05/07 01:19:32;;;;;;;11.70;6.70;;;12.40;1.00;;;;;;5104233;28;20232;-52
2022/05/07 01:21:58;;;;;;;8.83;5.87;;;12.40;1.00;;;;;;5110452;28;20970;-53
2022/05/07 01:24:23;;;;;;;8.93;6.13;;;12.30;1.00;;;;;;5114198;27;20283;-53
2022/05/07 01:26:49;;;;;;;9.70;6.40;;;12.30;1.00;;;;;;5108403;28;20216;-53
2022/05/07 01:29:14;;;;;;;6.67;6.00;;;12.30;1.00;;;;;;5114454;28;20191;-53
2022/05/07 01:31:40;;;;;;;7.67;5.60;;;12.20;1.00;;;;;;5113872;28;20192;-53
2022/05/07 01:34:05;;;;;;;7.40;5.90;;;12.20;1.00;;;;;;5113444;27;20196;-53
2022/05/07 01:36:31;;;;;;;11.00;5.13;;;12.20;1.00;;;;;;5109116;28;20634;-53
2022/05/07 01:38:56;;;;;;;8.97;6.40;;;12.10;1.00;;;;;;5114029;28;20196;-53
2022/05/07 01:41:22;;;;;;;7.93;6.00;;;12.10;1.00;;;;;;5113678;28;20245;-52
2022/05/07 01:43:47;;;;;;;7.27;5.20;;;12.00;1.00;;;;;;5111228;27;20314;-53
2022/05/07 01:48:57;;;;;;;8.83;4.87;;;12.00;1.00;;;;;;5113036;27;20242;-54
2022/05/07 01:51:22;;;;;;;6.10;5.07;;;12.00;1.00;;;;;;5113381;28;20833;-53
2022/05/07 01:53:48;;;;;;;9.50;5.43;;;11.90;1.00;;;;;;5112556;28;20239;-53
2022/05/07 01:56:13;;;;;;;7.63;5.70;;;11.90;1.00;;;;;;5097953;27;20200;-53
2022/05/07 01:58:39;;;;;;;7.80;5.90;;;11.90;1.00;;;;;;5113277;27;20219;-53
2022/05/07 02:01:05;;;;;;;7.50;5.57;;;11.90;1.00;;;;;;5112890;27;20206;-53
2022/05/07 02:03:30;;;;;;;9.93;6.50;;;11.90;1.00;;;;;;5112792;27;20215;-54
2022/05/07 02:05:56;;;;;;;7.80;6.30;;;11.90;1.00;;;;;;5112432;28;20242;-53
2022/05/07 02:08:21;;;;;;;11.30;6.50;;;11.80;1.00;;;;;;5113226;27;20216;-53
2022/05/07 02:10:47;;;;;;;11.80;8.00;;;11.80;1.00;;;;;;5112383;27;20283;-53
2022/05/07 02:13:12;;;;;;;11.10;7.40;;;11.80;1.00;;;;;;5113195;28;20287;-54
2022/05/07 02:15:38;;;;;;;11.77;6.97;;;11.80;1.00;;;;;;5113183;28;20212;-53
2022/05/07 02:18:04;;;;;;;10.50;7.40;;;11.80;1.00;;;;;;5112123;28;20515;-54
2022/05/07 02:20:29;;;;;;;16.07;10.77;;;11.80;1.00;;;;;;5109857;27;20240;-53
2022/05/07 02:22:58;;;;;;;13.20;9.53;;;11.80;1.00;;;;;;5094383;28;20199;-53
2022/05/07 02:25:24;;;;;;;16.13;10.17;;;11.80;1.00;;;;;;5113144;28;20200;-53
2022/05/07 02:27:49;;;;;;;20.97;11.40;;;11.80;1.00;;;;;;5112025;27;20526;-53
2022/05/07 02:30:15;;;;;;;21.80;12.33;;;11.80;1.00;;;;;;5108833;28;20200;-53
2022/05/07 02:32:41;;;;;;;15.57;11.03;;;11.80;1.00;;;;;;5099922;28;20204;-53
2022/05/07 02:35:07;;;;;;;21.73;12.57;;;11.80;1.00;;;;;;5112629;27;20437;-53
2022/05/07 02:37:32;;;;;;;15.90;11.40;;;11.70;1.00;;;;;;5112654;28;20254;-53
2022/05/07 02:39:58;;;;;;;17.20;12.07;;;11.70;1.00;;;;;;5111706;27;20442;-53
2022/05/07 02:42:43;;;;;;;20.53;12.80;;;11.70;1.00;;;;;;5112571;27;20527;-53
2022/05/07 02:45:11;;;;;;;19.97;11.83;;;11.80;1.00;;;;;;5111907;28;20207;-53
2022/05/07 02:47:38;;;;;;;21.10;12.93;;;11.80;1.00;;;;;;5107670;28;20499;-53
2022/05/07 02:50:05;;;;;;;18.97;12.30;;;11.80;1.00;;;;;;5110860;27;20438;-53
2022/05/07 02:52:33;;;;;;;20.07;13.30;;;11.80;1.00;;;;;;5112133;28;20796;-53
2022/05/07 02:55:00;;;;;;;23.40;13.70;;;11.80;1.00;;;;;;5112499;28;21114;-53
2022/05/07 02:57:26;;;;;;;24.33;14.43;;;11.80;1.00;;;;;;5112419;27;20548;-53
2022/05/07 02:59:51;;;;;;;21.57;13.73;;;11.90;1.00;;;;;;5111606;27;20592;-53
2022/05/07 03:02:17;;;;;;;27.20;15.47;;;11.90;1.00;;;;;;5109628;27;20193;-53
2022/05/07 03:04:42;;;;;;;23.73;15.13;;;11.90;1.00;;;;;;5111699;28;20666;-53
2022/05/07 03:07:08;;;;;;;21.70;14.00;;;11.90;1.00;;;;;;5109152;28;20663;-53
2022/05/07 03:09:33;;;;;;;26.50;14.77;;;11.90;1.00;;;;;;5098612;28;20886;-53
2022/05/07 03:11:59;;;;;;;29.90;16.20;;;11.90;1.00;;;;;;5111103;27;20658;-53
2022/05/07 03:14:25;;;;;;;23.10;15.87;;;11.90;1.00;;;;;;5111636;28;20271;-53
2022/05/07 03:16:51;;;;;;;27.97;16.60;;;11.80;1.00;;;;;;5111835;28;20207;-53
2022/05/07 03:19:16;;;;;;;29.03;16.90;;;11.80;1.00;;;;;;5111466;27;20259;-54
2022/05/07 03:21:43;;;;;;;30.60;18.10;;;11.70;1.00;;;;;;5111391;28;20195;-53
2022/05/07 03:24:09;;;;;;;26.17;16.93;;;11.70;1.00;;;;;;5111460;27;20184;-53
2022/05/07 03:26:34;;;;;;;29.20;18.00;;;11.60;1.00;;;;;;5111472;28;20506;-53
2022/05/07 03:29:00;;;;;;;30.63;18.93;;;11.60;9.80;;;;;;5111556;27;20438;-54
2022/05/07 03:31:27;;;;;;;33.90;20.47;;;11.50;33.70;;;;;;5111607;28;20275;-55
2022/05/07 03:33:52;;;;;;;28.93;19.33;;;11.40;25.60;;;;;;5110813;27;20986;-53
2022/05/07 03:36:19;;;;;;;36.23;22.00;;;11.40;31.30;;;;;;5101022;28;20421;-53
2022/05/07 03:38:45;;;;;;;32.03;20.13;;;11.30;75.50;;;;;;5110941;28;20223;-53
2022/05/07 03:41:11;;;;;;;28.83;18.90;;;11.30;56.00;;;;;;5109545;28;20545;-53
2022/05/07 03:43:37;;;;;;;33.97;18.53;;;11.20;87.70;;;;;;5100688;28;20284;-54
2022/05/07 03:46:04;;;;;;;30.63;19.67;;;11.20;99.00;;;;;;5111168;28;20192;-54
2022/05/07 03:48:30;;;;;;;32.67;19.03;;;11.10;99.90;;;;;;5111036;28;20560;-54
2022/05/07 03:50:56;;;;;;;32.90;20.47;;;11.10;99.90;;;;;;5108278;27;20438;-54
2022/05/07 03:53:31;;;;;;;28.83;19.10;;;11.10;99.90;;;;;;5110925;28;20509;-53
2022/05/07 03:56:05;;;;;;;33.83;20.47;;;11.00;99.90;;;;;;5110205;27;20512;-53
2022/05/07 03:58:31;;;;;;;30.77;18.87;;;11.00;99.90;;;;;;5111070;27;20445;-54
2022/05/07 04:00:59;;;;;;;29.37;18.53;;;10.90;99.90;;;;;;5110013;28;20792;-53
2022/05/07 04:03:26;;;;;;;33.70;20.20;;;10.90;99.90;;;;;;5110887;28;20204;-54
2022/05/07 04:05:52;;;;;;;33.97;20.30;;;10.90;99.90;;;;;;5110172;27;20572;-54
2022/05/07 04:08:18;;;;;;;34.13;21.07;;;10.90;99.90;;;;;;5108537;28;20556;-53
2022/05/07 04:10:44;;;;;;;29.63;19.43;;;10.80;99.90;;;;;;5109726;28;20192;-53
2022/05/07 04:13:11;;;;;;;29.27;19.90;;;10.80;99.90;;;;;;5110492;28;20655;-54
2022/05/07 04:15:37;;;;;;;35.57;20.20;;;10.80;99.90;;;;;;5110725;28;20571;-53
2022/05/07 04:18:04;;;;;;;35.53;21.57;;;10.80;99.90;;;;;;5109998;28;21039;-53
2022/05/07 04:20:30;;;;;;;37.00;20.67;;;10.90;99.90;;;;;;5110520;27;20493;-53
2022/05/07 04:22:56;;;;;;;36.30;21.97;;;10.90;99.90;;;;;;5108812;27;21014;-54
2022/05/07 04:25:22;;;;;;;36.50;22.20;;;10.90;99.90;;;;;;5110123;27;20542;-54
2022/05/07 04:27:47;;;;;;;34.73;22.07;;;11.00;99.90;;;;;;5110412;28;20318;-59
2022/05/07 04:30:13;;;;;;;44.87;24.73;;;11.00;99.90;;;;;;5103748;28;20193;-53
2022/05/07 04:32:38;;;;;;;40.30;24.80;;;11.10;99.90;;;;;;5110667;28;20286;-54
2022/05/07 04:35:06;;;;;;;38.20;23.93;;;11.10;99.90;;;;;;5110011;28;20224;-54
2022/05/07 04:37:31;;;;;;;42.33;24.87;;;11.20;99.90;;;;;;5110849;27;20899;-54
2022/05/07 04:39:57;;;;;;;42.47;25.53;;;11.30;99.90;;;;;;5110184;28;20450;-54
2022/05/07 04:42:22;;;;;;;39.30;24.37;;;11.40;99.90;;;;;;5110286;27;20223;-54
2022/05/07 04:44:48;;;;;;;49.10;27.03;;;11.50;99.90;;;;;;5109853;28;20217;-54
2022/05/07 04:47:13;;;;;;;42.60;25.50;;;11.50;99.90;;;;;;5108959;28;20220;-53
2022/05/07 04:49:39;;;;;;;42.43;26.37;;;11.60;99.90;;;;;;5082019;28;20204;-54
2022/05/07 04:52:07;;;;;;;41.57;24.70;;;11.70;99.90;;;;;;5109951;28;20200;-53
2022/05/07 04:54:33;;;;;;;40.60;24.10;;;11.80;99.90;;;;;;5109979;27;20200;-54
2022/05/07 04:56:59;;;;;;;36.77;22.83;;;12.00;99.90;;;;;;5108627;28;20997;-53
2022/05/07 04:59:25;;;;;;;40.73;24.00;;;12.10;99.90;;;;;;5109905;28;20188;-53
2022/05/07 05:01:51;;;;;;;34.90;22.50;;;12.30;99.90;;;;;;5109930;28;20445;-53
2022/05/07 05:04:16;;;;;;;41.50;23.10;;;12.50;99.90;;;;;;5109872;28;20283;-53
2022/05/07 05:06:42;;;;;;;33.07;21.10;;;12.70;99.90;;;;;;5109060;28;20227;-53
2022/05/07 05:09:08;;;;;;;35.90;23.00;;;12.90;93.20;;;;;;5108795;28;20271;-53
2022/05/07 05:11:37;;;;;;;38.43;23.67;;;12.90;33.40;;;;;;5096609;28;20529;-53
2022/05/07 05:15:01;;;;;;;40.47;24.13;;;13.00;16.40;;;;;;5109854;28;20434;-53
2022/05/07 05:16:49;;;;;;;44.10;25.60;;;13.10;1.00;;;;;;5109191;28;20543;-54
2022/05/07 05:19:15;;;;;;;38.60;22.17;;;13.20;1.00;;;;;;5109827;28;20515;-54
2022/05/07 05:21:41;;;;;;;42.90;25.80;;;13.30;1.00;;;;;;5109805;28;20438;-54
2022/05/07 05:24:07;;;;;;;48.40;27.13;;;13.40;1.00;;;;;;5109715;28;20589;-54
2022/05/07 05:26:32;;;;;;;52.27;26.03;;;13.40;1.00;;;;;;5109842;28;20461;-53
2022/05/07 05:28:58;;;;;;;57.10;25.90;;;13.50;1.00;;;;;;5100203;28;21411;-53
2022/05/07 05:31:24;;;;;;;44.73;26.53;;;13.50;1.00;;;;;;5109501;28;20192;-53
2022/05/07 05:33:49;;;;;;;43.00;25.20;;;13.60;1.00;;;;;;5109698;28;20583;-53
2022/05/07 05:36:15;;;;;;;47.27;26.50;;;13.70;1.00;;;;;;5109535;28;20204;-53
2022/05/07 05:38:41;;;;;;;45.77;27.17;;;13.70;1.00;;;;;;5109818;28;20630;-53
2022/05/07 05:41:06;;;;;;;48.20;28.37;;;13.80;1.00;;;;;;5108999;28;20199;-53
2022/05/07 05:43:32;;;;;;;54.57;28.80;;;13.90;1.00;;;;;;5109852;28;20204;-53
2022/05/07 05:45:58;;;;;;;44.30;28.10;;;13.80;1.00;;;;;;5109601;28;20223;-53
2022/05/07 05:48:28;;;;;;;45.60;28.60;;;13.80;1.00;;;;;;5109574;28;20493;-53
2022/05/07 05:50:54;;;;;;;46.33;26.77;;;13.80;1.00;;;;;;5095267;28;20196;-53
2022/05/07 05:53:19;;;;;;;44.67;26.77;;;13.80;1.00;;;;;;5109476;28;20442;-53
2022/05/07 05:55:47;;;;;;;51.43;29.10;;;13.80;1.00;;;;;;5109538;28;20653;-52
2022/05/07 05:58:12;;;;;;;46.07;26.20;;;13.80;1.00;;;;;;5108369;28;20218;-53
2022/05/07 06:00:38;;;;;;;42.83;25.30;;;13.90;1.00;;;;;;5109076;28;20469;-53
2022/05/07 06:03:04;;;;;;;38.17;24.67;;;13.90;1.00;;;;;;5107514;28;20200;-53
2022/05/07 06:05:29;;;;;;;40.90;24.17;;;14.00;1.00;;;;;;5108651;28;20204;-52
2022/05/07 06:07:55;;;;;;;35.00;21.70;;;14.00;1.00;;;;;;5109685;28;20233;-53
2022/05/07 06:10:21;;;;;;;40.60;24.53;;;14.10;1.00;;;;;;5113052;28;20271;-53
2022/05/07 06:12:46;;;;;;;46.40;23.60;;;14.10;1.00;;;;;;5112771;27;20564;-53
2022/05/07 06:15:12;;;;;;;32.90;19.77;;;14.20;1.00;;;;;;5113010;28;20568;-53
2022/05/07 06:17:37;;;;;;;27.97;18.60;;;14.30;1.00;;;;;;5113412;28;20188;-53
2022/05/07 06:20:03;;;;;;;34.50;21.23;;;14.40;1.00;;;;;;5112930;27;20232;-53
2022/05/07 06:22:29;;;;;;;31.00;19.10;;;14.50;1.00;;;;;;5113021;27;20192;-53
2022/05/07 06:27:39;;;;;;;29.50;17.07;;;14.70;99.90;;;;;;5112272;27;20683;-52
2022/05/07 06:30:05;;;;;;;29.90;17.70;;;14.90;99.90;;;;;;5112856;28;20442;-53
2022/05/07 06:32:35;;;;;;;27.30;16.40;;;15.00;99.90;;;;;;5112194;27;20196;-52
2022/05/07 06:35:05;;;;;;;26.17;17.20;;;15.20;99.90;;;;;;5112302;27;20430;-53
2022/05/07 06:37:35;;;;;;;26.87;15.67;;;15.50;99.90;;;;;;5112274;28;20943;-52
2022/05/07 06:40:03;;;;;;;27.67;15.37;;;15.70;99.90;;;;;;5106200;28;20832;-53
2022/05/07 06:42:29;;;;;;;25.40;16.37;;;15.90;99.90;;;;;;5107089;28;20442;-53
2022/05/07 06:44:55;;;;;;;25.40;14.10;;;16.00;99.90;;;;;;5111997;27;20437;-53
2022/05/07 06:47:20;;;;;;;25.50;15.03;;;16.20;99.90;;;;;;5112319;28;20212;-52
2022/05/07 06:49:46;;;;;;;23.30;16.00;;;16.30;99.90;;;;;;5111324;28;20236;-52
2022/05/07 06:52:12;;;;;;;21.27;14.67;;;16.30;99.90;;;;;;5112153;28;20197;-53
2022/05/07 06:54:37;;;;;;;28.93;16.07;;;16.30;99.90;;;;;;5112382;28;20249;-53
2022/05/07 06:57:04;;;;;;;24.47;14.17;;;16.30;99.90;;;;;;5111665;28;20585;-53
2022/05/07 06:59:32;;;;;;;19.30;12.30;;;16.30;99.90;;;;;;5111793;27;20196;-53
2022/05/07 07:01:58;;;;;;;18.63;11.33;;;16.30;99.90;;;;;;5101504;28;20438;-53
2022/05/07 07:04:25;;;;;;;14.90;10.73;;;16.20;99.90;;;;;;5092359;28;20399;-52
2022/05/07 07:06:51;;;;;;;17.13;11.60;;;16.20;99.90;;;;;;5103779;28;20421;-53
2022/05/07 07:09:30;;;;;;;15.87;11.10;;;16.10;99.90;;;;;;5109643;28;20419;-52
2022/05/07 07:11:55;;;;;;;16.33;11.07;;;16.10;99.90;;;;;;5074241;28;20174;-52
2022/05/07 07:14:21;;;;;;;15.97;11.00;;;16.10;99.90;;;;;;5092791;28;21039;-53
2022/05/07 07:16:47;;;;;;;23.80;11.30;;;16.20;99.90;;;;;;5108208;28;20275;-53
2022/05/07 07:19:16;;;;;;;18.30;11.60;;;16.30;99.90;;;;;;5098925;28;20566;-52
2022/05/07 07:21:42;;;;;;;17.37;10.53;;;16.40;99.90;;;;;;5097308;28;20203;-53
2022/05/07 07:24:08;;;;;;;15.23;11.03;;;16.40;99.90;;;;;;5106047;27;20510;-52
2022/05/07 07:26:33;;;;;;;14.10;8.23;;;16.40;99.90;;;;;;5103156;27;20564;-53
2022/05/07 07:28:59;;;;;;;10.87;7.30;;;16.50;99.90;;;;;;5105929;28;20220;-52
2022/05/07 07:31:24;;;;;;;13.07;7.93;;;16.40;99.90;;;;;;5095875;28;20271;-53
2022/05/07 07:33:50;;;;;;;14.03;8.70;;;16.20;99.90;;;;;;5110672;28;20630;-52
2022/05/07 07:36:16;;;;;;;13.23;8.10;;;16.10;99.90;;;;;;5100571;28;20261;-52
2022/05/07 07:38:42;;;;;;;13.87;8.67;;;16.00;99.90;;;;;;5112284;28;20165;-53
2022/05/07 07:41:07;;;;;;;10.97;8.00;;;15.90;99.90;;;;;;5108056;28;21327;-53
2022/05/07 07:43:33;;;;;;;14.07;8.87;;;16.00;99.90;;;;;;5109246;28;20270;-53
2022/05/07 07:48:44;;;;;;;13.90;8.20;;;16.10;99.90;;;;;;5106594;28;20549;-52
2022/05/07 07:51:10;;;;;;;14.37;7.33;;;16.20;99.90;;;;;;5108133;27;20441;-53
2022/05/07 07:53:40;;;;;;;14.90;8.57;;;16.30;99.90;;;;;;5100376;28;21000;-53
2022/05/07 07:56:07;;;;;;;12.53;7.70;;;16.30;99.90;;;;;;5091554;28;20184;-52
2022/05/07 07:58:33;;;;;;;11.10;7.27;;;16.40;99.90;;;;;;5106651;27;20962;-52
2022/05/07 08:00:59;;;;;;;13.27;8.27;;;16.70;99.90;;;;;;5111758;28;20426;-53
2022/05/07 08:03:25;;;;;;;13.03;7.73;;;16.80;99.90;;;;;;5111068;28;20843;-53
2022/05/07 08:05:52;;;;;;;13.20;8.83;;;17.00;99.90;;;;;;5111070;28;20216;-53
2022/05/07 08:13:53;;;;;;;15.13;7.97;;;17.30;99.90;;;;;;5105606;28;20494;-53
2022/05/07 08:16:20;;;;;;;11.67;8.07;;;17.40;99.90;;;;;;5079308;28;21431;-53
2022/05/07 08:18:46;;;;;;;11.20;7.10;;;17.40;99.90;;;;;;5092634;28;20994;-52
2022/05/07 08:21:12;;;;;;;12.73;7.53;;;17.50;99.90;;;;;;5111656;28;20413;-53
2022/05/07 08:23:39;;;;;;;13.57;7.33;;;17.70;99.90;;;;;;5111472;28;20921;-52
2022/05/07 08:26:06;;;;;;;11.93;7.40;;;17.70;99.90;;;;;;5110733;27;20201;-52
2022/05/07 08:28:32;;;;;;;10.97;7.37;;;17.80;99.90;;;;;;5111143;28;20802;-53
2022/05/07 08:30:58;;;;;;;12.30;8.00;;;18.10;99.90;;;;;;5110534;28;20497;-53
2022/05/07 08:33:23;;;;;;;11.50;7.80;;;18.30;99.90;;;;;;5109485;28;20272;-52
2022/05/07 08:35:49;;;;;;;11.47;7.57;;;18.40;99.90;;;;;;5110909;28;20445;-52
2022/05/07 08:38:14;;;;;;;13.23;8.30;;;18.50;99.90;;;;;;5109370;27;20575;-52
2022/05/07 08:40:41;;;;;;;13.13;7.80;;;18.60;99.90;;;;;;5109097;28;20216;-52
2022/05/07 08:43:07;;;;;;;14.20;7.20;;;18.80;99.90;;;;;;5092686;28;20196;-53
2022/05/07 08:45:34;;;;;;;12.07;7.43;;;18.70;99.90;;;;;;5104136;27;20446;-53
2022/05/07 08:47:59;;;;;;;9.13;6.90;;;18.90;99.90;;;;;;5107105;28;20706;-52
2022/05/07 08:50:26;;;;;;;10.33;6.47;;;19.00;99.90;;;;;;5106922;28;20427;-52
2022/05/07 08:52:52;;;;;;;9.90;5.90;;;19.10;99.90;;;;;;5109143;27;20250;-53
2022/05/07 08:55:19;;;;;;;11.67;6.10;;;19.30;99.90;;;;;;5110376;27;20967;-52
2022/05/07 08:57:47;;;;;;;13.60;6.63;;;19.30;99.90;;;;;;5110996;28;20421;-52
2022/05/07 09:00:15;;;;;;;11.47;6.23;;;19.50;99.90;;;;;;5109973;28;20845;-53
2022/05/07 09:02:44;;;;;;;11.20;6.53;;;19.60;99.90;;;;;;5109241;28;20430;-53
2022/05/07 09:05:11;;;;;;;10.20;6.10;;;19.70;99.90;;;;;;5099098;28;20534;-50
2022/05/07 09:07:39;;;;;;;11.50;7.07;;;19.70;99.90;;;;;;5109553;28;20478;-50
2022/05/07 09:10:11;;;;;;;9.73;5.40;;;19.60;99.90;;;;;;5107962;28;20452;-51
2022/05/07 09:12:36;;;;;;;7.77;5.93;;;19.50;99.90;;;;;;5100909;28;20406;-50
2022/05/07 09:15:06;;;;;;;12.37;7.37;;;19.20;99.90;;;;;;5112183;28;20445;-50
2022/05/07 09:17:32;;;;;;;19.03;7.10;;;19.10;99.90;;;;;;5096954;28;20231;-50
2022/05/07 09:19:58;;;;;;;14.43;7.50;;;19.10;99.90;;;;;;5103808;27;21186;-50
2022/05/07 09:22:25;;;;;;;12.70;7.90;;;19.30;99.90;;;;;;5092168;28;20977;-50
2022/05/07 09:24:55;;;;;;;10.50;5.93;;;19.50;99.90;;;;;;5096493;28;20642;-50
2022/05/07 09:27:21;;;;;;;8.50;5.87;;;20.00;99.90;;;;;;5091526;28;20504;-50
2022/05/07 09:30:02;;;;;;;10.70;6.10;;;20.30;99.90;;;;;;5091685;28;20928;-50
2022/05/07 09:32:36;;;;;;;13.73;5.77;;;20.30;99.90;;;;;;5099315;28;20463;-50
2022/05/07 09:38:01;;;;;;;13.57;6.60;;;20.70;99.90;;;;;;5101631;28;20980;-53
2022/05/07 09:40:27;;;;;;;8.23;5.17;;;20.80;99.90;;;;;;5098009;28;20469;-50
2022/05/07 09:42:57;;;;;;;8.40;4.80;;;21.10;99.90;;;;;;5110752;28;20433;-50
2022/05/07 09:45:25;;;;;;;11.77;5.60;;;21.30;99.90;;;;;;5113952;27;20499;-51
2022/05/07 09:47:51;;;;;;;10.40;6.50;;;21.30;99.90;;;;;;5104041;28;20458;-50
2022/05/07 09:50:24;;;;;;;7.80;6.03;;;21.00;99.90;;;;;;5107668;28;20436;-50
2022/05/07 09:58:20;;;;;;;13.57;9.37;;;20.50;99.90;;;;;;5106910;28;20478;-50
2022/05/07 10:01:01;;;;;;;13.30;10.20;;;20.70;99.90;;;;;;5113993;27;20430;-50
2022/05/07 10:04:06;;;;;;;14.57;9.10;;;20.80;99.90;;;;;;5115223;28;20457;-50
2022/05/07 10:06:46;;;;;;;11.20;8.40;;;20.90;99.90;;;;;;5115462;28;20782;-50
2022/05/07 10:09:24;;;;;;;12.80;9.93;;;21.20;99.90;;;;;;5114670;28;20453;-50
2022/05/07 10:11:53;;;;;;;14.37;10.13;;;21.50;99.90;;;;;;5113824;28;20405;-50
2022/05/07 10:14:30;;;;;;;17.60;12.23;;;21.60;99.90;;;;;;5113588;28;20507;-50
2022/05/07 10:16:57;;;;;;;16.87;11.90;;;21.90;99.90;;;;;;5113829;28;20950;-50
2022/05/07 10:19:39;;;;;;;19.23;12.20;;;22.10;99.90;;;;;;5099826;28;20565;-50
2022/05/07 10:22:17;;;;;;;18.10;10.90;;;22.40;99.90;;;;;;5094242;28;20431;-50
2022/05/07 10:24:44;;;;;;;14.03;10.53;;;22.00;99.90;;;;;;5093364;28;20429;-50
2022/05/07 10:27:30;;;;;;;15.90;10.23;;;21.80;99.90;;;;;;5092862;28;20490;-50
2022/05/07 10:30:08;;;;;;;16.83;10.77;;;21.40;99.90;;;;;;5093332;28;20545;-50
2022/05/07 10:33:03;;;;;;;22.13;10.23;;;21.80;99.90;;;;;;5093161;28;20835;-50
2022/05/07 10:35:41;;;;;;;17.73;12.33;;;22.10;99.90;;;;;;5093156;28;20453;-50
2022/05/07 10:38:08;;;;;;;18.00;10.17;;;21.90;99.90;;;;;;5092909;28;20402;-50
2022/05/07 10:40:34;;;;;;;19.07;11.00;;;21.80;99.90;;;;;;5095044;28;20804;-50
2022/05/07 10:43:00;;;;;;;16.23;9.77;;;21.70;99.90;;;;;;5092785;28;20418;-51
2022/05/07 10:45:27;;;;;;;15.57;10.30;;;21.80;99.90;;;;;;5092755;28;20173;-50
2022/05/07 10:47:57;;;;;;;18.03;11.30;;;21.80;99.90;;;;;;5092587;28;20287;-50
2022/05/07 10:50:23;;;;;;;15.97;10.83;;;21.90;99.90;;;;;;5092586;28;20457;-51
2022/05/07 10:52:56;;;;;;;13.87;9.20;;;22.00;99.90;;;;;;5092391;28;20414;-50
2022/05/07 10:55:26;;;;;;;14.60;10.43;;;22.30;99.90;;;;;;5092310;28;20767;-50
2022/05/07 10:57:52;;;;;;;16.33;9.50;;;22.30;99.90;;;;;;5092486;28;20387;-51
2022/05/07 11:00:20;;;;;;;11.40;6.27;;;22.30;99.90;;;;;;5095143;28;20835;-51
2022/05/07 11:02:48;;;;;;;13.80;7.13;;;21.90;99.90;;;;;;5092461;28;20407;-51
2022/05/07 11:05:15;;;;;;;8.23;6.10;;;21.30;99.90;;;;;;5097570;28;20443;-51
2022/05/07 11:07:40;;;;;;;12.60;6.73;;;21.00;99.90;;;;;;5100366;28;20541;-50
2022/05/07 11:10:07;;;;;;;9.53;7.30;;;20.70;99.90;;;;;;5096625;27;21989;-52
2022/05/07 11:12:35;;;;;;;9.90;6.13;;;20.20;99.90;;;;;;5101476;27;20193;-50
2022/05/07 11:15:05;;;;;;;11.97;6.80;;;20.10;99.90;;;;;;5105901;27;20529;-50
2022/05/07 11:17:35;;;;;;;10.23;5.03;;;20.20;99.90;;;;;;5103961;27;20499;-52
2022/05/07 11:20:01;;;;;;;8.83;5.10;;;20.60;99.90;;;;;;5098494;28;21009;-51
2022/05/07 11:22:30;;;;;;;11.20;5.53;;;21.40;99.90;;;;;;5093312;28;20434;-51
2022/05/07 11:25:05;;;;;;;8.43;5.13;;;22.10;99.90;;;;;;5112713;28;20387;-50
2022/05/07 11:27:34;;;;;;;9.07;5.93;;;22.30;99.90;;;;;;5109746;27;20476;-51
2022/05/07 11:30:01;;;;;;;11.57;7.93;;;22.20;99.90;;;;;;5108594;27;20446;-51
2022/05/07 11:32:37;;;;;;;11.27;8.47;;;21.80;99.90;;;;;;5112760;28;21225;-50
2022/05/07 11:35:03;;;;;;;13.40;8.30;;;21.30;99.90;;;;;;5111084;27;20445;-51
2022/05/07 11:37:38;;;;;;;11.97;8.10;;;20.90;99.90;;;;;;5110723;28;20434;-51
2022/05/07 11:40:03;;;;;;;10.67;7.43;;;20.30;99.90;;;;;;5110937;27;20933;-51
2022/05/07 11:42:35;;;;;;;8.90;6.90;;;19.90;99.90;;;;;;5112068;27;20426;-51
2022/05/07 11:45:26;;;;;;;16.47;6.37;;;19.60;99.90;;;;;;5099313;27;20199;-51
2022/05/07 11:48:13;;;;;;;5.90;4.57;;;19.50;99.90;;;;;;5103493;27;20470;-50
2022/05/07 11:50:41;;;;;;;11.77;5.00;;;19.50;99.90;;;;;;5103049;28;20438;-51
2022/05/07 11:53:15;;;;;;;10.50;5.33;;;19.50;99.90;;;;;;5111402;28;20426;-51
2022/05/07 11:55:42;;;;;;;10.13;4.60;;;19.30;99.90;;;;;;5110059;27;20430;-51
2022/05/07 11:58:21;;;;;;;8.03;5.30;;;19.20;99.90;;;;;;5111163;28;20536;-50
2022/05/07 12:00:52;;;;;;;12.80;5.60;;;19.00;99.90;;;;;;5111471;27;20430;-51
2022/05/07 12:03:24;;;;;;;10.83;5.53;;;18.90;99.90;;;;;;5110640;28;20436;-50
2022/05/07 12:05:51;;;;;;;12.90;6.20;;;18.70;99.90;;;;;;5108800;27;20430;-51
2022/05/07 12:08:18;;;;;;;10.97;6.57;;;18.50;99.90;;;;;;5111119;28;20487;-51
2022/05/07 12:10:46;;;;;;;11.60;6.03;;;18.40;99.90;;;;;;5109845;28;20912;-51
2022/05/07 12:13:14;;;;;;;10.83;4.77;;;18.30;99.90;;;;;;5110851;28;20425;-50
2022/05/07 12:18:24;;;;;;;5.93;4.20;;;18.30;99.90;;;;;;5110657;28;20452;-50
2022/05/07 12:20:50;;;;;;;9.43;5.73;;;18.50;99.90;;;;;;5109900;28;20473;-50
2022/05/07 12:31:28;;;;;;;11.07;7.73;;;19.80;99.90;;;;;;5105268;28;20487;-51
2022/05/07 12:33:54;;;;;;;10.10;5.53;;;20.10;99.90;;;;;;5089442;28;21272;-51
2022/05/07 12:36:20;;;;;;;10.50;5.20;;;19.90;99.90;;;;;;5109619;28;20275;-51
2022/05/07 12:38:45;;;;;;;13.03;5.53;;;19.80;99.90;;;;;;5110056;28;20199;-51
2022/05/07 12:41:11;;;;;;;10.83;5.83;;;20.20;99.90;;;;;;5109979;28;20204;-50
2022/05/07 12:43:36;;;;;;;8.60;5.80;;;20.30;99.90;;;;;;5109756;28;20877;-50
2022/05/07 12:46:02;;;;;;;7.70;5.50;;;20.40;99.90;;;;;;5101479;27;20196;-50
2022/05/07 12:48:28;;;;;;;7.90;6.13;;;20.40;99.90;;;;;;5109905;28;20227;-51
2022/05/07 12:50:54;;;;;;;7.23;6.17;;;20.40;99.90;;;;;;5104316;28;20646;-51
2022/05/07 12:53:20;;;;;;;9.80;4.40;;;20.40;99.90;;;;;;5099186;28;20189;-51
2022/05/07 12:55:46;;;;;;;8.07;4.87;;;20.50;99.90;;;;;;5109591;28;20434;-51
2022/05/07 12:58:12;;;;;;;7.33;4.90;;;21.00;99.90;;;;;;5107779;28;21145;-52
2022/05/07 13:00:39;;;;;;;8.33;4.47;;;21.70;99.90;;;;;;5110162;27;20783;-51
2022/05/07 13:03:05;;;;;;;8.40;4.27;;;22.10;99.90;;;;;;5110009;28;20462;-51
2022/05/07 13:05:33;;;;;;;6.60;4.03;;;22.50;99.90;;;;;;5109394;28;20426;-51
2022/05/07 13:08:00;;;;;;;4.43;3.73;;;23.20;99.90;;;;;;5107005;28;20465;-51
2022/05/07 13:10:26;;;;;;;5.90;3.90;;;23.70;99.90;;;;;;5106560;28;20923;-51
2022/05/07 13:12:52;;;;;;;5.53;3.40;;;23.70;99.90;;;;;;5109522;28;20445;-51
2022/05/07 13:15:18;;;;;;;5.60;3.90;;;23.30;99.90;;;;;;5109727;28;20803;-51
2022/05/07 13:17:43;;;;;;;6.47;4.60;;;22.70;99.90;;;;;;5108716;28;20200;-51